Time;durP1;ratioP1;P1;durP2;ratioP2;P2;SDS_P1;SDS_P2;PMS_P1;PMS_P2;Temp;Humidity;BMP_temperature;BMP_pressure;BME280_temperature;BME280_humidity;BME280_pressure;Samples;Min_cycle;Max_cycle;Signal;HPM_P1;HPM_P2
2021/12/13 00:00:59;;;;;;;48.42;20.35;;;9.80;99.90;;;;;;5088067;28;20565;-90
2021/12/13 00:03:40;;;;;;;58.72;22.00;;;9.90;99.90;;;;;;5068151;28;20056;-90
2021/12/13 00:06:10;;;;;;;63.85;21.77;;;9.80;99.90;;;;;;5080086;28;20048;-87
2021/12/13 00:08:39;;;;;;;50.05;19.13;;;9.90;99.90;;;;;;5070728;28;20095;-89
2021/12/13 00:11:19;;;;;;;50.70;20.73;;;9.80;99.90;;;;;;5081615;28;20431;-90
2021/12/13 00:13:50;;;;;;;45.50;20.17;;;9.90;99.90;;;;;;5071059;28;20044;-90
2021/12/13 00:16:33;;;;;;;48.60;17.67;;;9.80;99.90;;;;;;5091638;28;20052;-87
2021/12/13 00:19:07;;;;;;;48.00;17.55;;;9.80;99.90;;;;;;5067842;28;20136;-88
2021/12/13 00:21:44;;;;;;;49.40;18.40;;;9.80;99.90;;;;;;5073687;28;20040;-90
2021/12/13 00:24:21;;;;;;;42.53;18.02;;;9.80;99.90;;;;;;5073799;28;20055;-88
2021/12/13 00:26:49;;;;;;;38.60;16.98;;;9.80;99.90;;;;;;5084096;28;20482;-88
2021/12/13 00:29:23;;;;;;;59.15;19.52;;;9.90;99.90;;;;;;5081369;28;20988;-82
2021/12/13 00:32:16;;;;;;;45.92;19.63;;;9.90;99.90;;;;;;5073643;28;20051;-87
2021/12/13 00:35:18;;;;;;;47.08;19.55;;;9.80;99.90;;;;;;5088098;28;20036;-88
2021/12/13 00:37:48;;;;;;;50.47;20.98;;;9.90;99.90;;;;;;5038576;28;20087;-87
2021/12/13 00:40:22;;;;;;;41.92;18.65;;;9.90;99.90;;;;;;5075869;28;20051;-77
2021/12/13 00:42:56;;;;;;;46.70;20.83;;;9.90;99.90;;;;;;5094734;28;20095;-89
2021/12/13 00:45:25;;;;;;;50.95;19.95;;;9.90;99.90;;;;;;5065616;28;20051;-89
2021/12/13 00:47:51;;;;;;;54.60;22.13;;;9.80;99.90;;;;;;5080474;28;20093;-86
2021/12/13 00:50:26;;;;;;;50.00;20.73;;;9.90;99.90;;;;;;5081181;28;20290;-88
2021/12/13 00:52:53;;;;;;;50.15;19.33;;;9.90;99.90;;;;;;5082908;28;20454;-88
2021/12/13 00:55:23;;;;;;;48.13;19.58;;;9.80;99.90;;;;;;5094719;28;20188;-89
2021/12/13 00:57:52;;;;;;;52.67;20.27;;;10.00;99.90;;;;;;5079403;28;20063;-88
2021/12/13 01:00:30;;;;;;;40.80;17.50;;;9.90;99.90;;;;;;5079383;28;20498;-90
2021/12/13 01:03:04;;;;;;;37.17;17.60;;;9.80;99.90;;;;;;5066789;28;20558;-90
2021/12/13 01:05:58;;;;;;;43.03;17.52;;;10.00;99.90;;;;;;5079467;28;20051;-86
2021/12/13 01:09:02;;;;;;;35.35;17.13;;;9.90;99.90;;;;;;5095583;28;20048;-88
2021/12/13 01:11:47;;;;;;;33.97;16.83;;;9.90;99.90;;;;;;5095491;28;20076;-90
2021/12/13 01:14:29;;;;;;;36.65;16.35;;;9.90;99.90;;;;;;5095781;28;20111;-79
2021/12/13 01:17:04;;;;;;;35.45;16.92;;;9.90;99.90;;;;;;5088933;28;20052;-89
2021/12/13 01:19:51;;;;;;;35.90;17.95;;;10.00;99.90;;;;;;5097159;28;20088;-89
2021/12/13 01:22:43;;;;;;;35.50;18.33;;;9.90;99.90;;;;;;5077353;28;20044;-89
2021/12/13 01:25:21;;;;;;;31.85;18.25;;;10.00;99.90;;;;;;5100324;28;20096;-86
2021/12/13 01:27:58;;;;;;;40.38;18.27;;;10.00;99.90;;;;;;5102546;28;20044;-82
2021/12/13 01:30:34;;;;;;;35.63;17.60;;;10.00;99.90;;;;;;5090500;28;20087;-86
2021/12/13 01:33:03;;;;;;;48.20;22.33;;;9.90;99.90;;;;;;5092354;28;20052;-87
2021/12/13 01:35:32;;;;;;;42.70;20.85;;;9.90;99.90;;;;;;5091690;28;20072;-86
2021/12/13 01:38:03;;;;;;;47.63;20.95;;;9.90;99.90;;;;;;5105791;28;20052;-85
2021/12/13 01:40:32;;;;;;;44.97;21.95;;;10.00;99.90;;;;;;5085526;28;20094;-89
2021/12/13 01:43:11;;;;;;;47.67;21.60;;;10.00;99.90;;;;;;5106357;28;20048;-86
2021/12/13 01:45:39;;;;;;;50.92;23.25;;;10.00;99.90;;;;;;5107029;28;20501;-87
2021/12/13 01:48:06;;;;;;;52.80;22.38;;;10.00;99.90;;;;;;5110100;28;20036;-86
2021/12/13 01:50:48;;;;;;;52.97;25.55;;;9.90;99.90;;;;;;5108220;28;20032;-84
2021/12/13 01:53:16;;;;;;;60.92;26.38;;;9.90;99.90;;;;;;5107691;28;20130;-73
2021/12/13 01:55:46;;;;;;;63.05;25.67;;;9.90;99.90;;;;;;5097243;28;20044;-88
2021/12/13 01:58:42;;;;;;;51.10;24.73;;;9.80;99.90;;;;;;5101340;28;20422;-86
2021/12/13 02:01:09;;;;;;;50.80;24.23;;;9.90;99.90;;;;;;5094031;28;20044;-86
2021/12/13 02:04:00;;;;;;;59.08;24.40;;;10.00;99.90;;;;;;5102615;28;20044;-88
2021/12/13 02:06:36;;;;;;;54.58;25.45;;;9.90;99.90;;;;;;5093071;28;20096;-86
2021/12/13 02:09:07;;;;;;;58.33;21.75;;;9.90;99.90;;;;;;5093448;28;20079;-76
2021/12/13 02:11:34;;;;;;;55.22;23.48;;;9.90;99.90;;;;;;5107444;28;20039;-85
2021/12/13 02:14:07;;;;;;;62.38;23.75;;;9.80;99.90;;;;;;5090139;28;20131;-87
2021/12/13 02:19:34;;;;;;;49.58;20.55;;;9.80;99.90;;;;;;5089039;28;20086;-86
2021/12/13 02:22:32;;;;;;;51.70;20.63;;;9.90;99.90;;;;;;5082344;28;20044;-87
2021/12/13 02:25:05;;;;;;;55.72;20.50;;;9.90;99.90;;;;;;5078622;28;20055;-85
2021/12/13 02:27:35;;;;;;;51.70;19.67;;;9.90;99.90;;;;;;5071308;28;20055;-86
2021/12/13 02:30:20;;;;;;;48.70;20.55;;;9.80;99.90;;;;;;5087228;28;20035;-88
2021/12/13 02:32:47;;;;;;;38.53;18.50;;;9.80;99.90;;;;;;5078384;28;20490;-86
2021/12/13 02:35:15;;;;;;;39.90;18.85;;;9.70;99.90;;;;;;5089554;28;20040;-73
2021/12/13 02:37:42;;;;;;;32.95;17.95;;;9.70;99.90;;;;;;5077100;28;20032;-88
2021/12/13 02:40:10;;;;;;;46.40;18.67;;;9.70;99.90;;;;;;5062976;28;20093;-89
2021/12/13 02:42:36;;;;;;;52.13;18.95;;;9.80;99.90;;;;;;5073943;28;20040;-88
2021/12/13 02:45:20;;;;;;;36.75;16.65;;;9.80;99.90;;;;;;5093381;28;20089;-81
2021/12/13 02:47:55;;;;;;;41.78;18.05;;;9.70;99.90;;;;;;5091115;28;20043;-89
2021/12/13 02:50:45;;;;;;;39.08;18.55;;;9.70;99.90;;;;;;5073497;28;20520;-88
2021/12/13 02:53:13;;;;;;;42.40;18.42;;;9.70;99.90;;;;;;5087723;28;20486;-87
2021/12/13 02:55:39;;;;;;;39.50;18.17;;;9.70;99.90;;;;;;5094865;28;20043;-88
2021/12/13 02:58:10;;;;;;;34.92;17.05;;;9.80;99.90;;;;;;5075346;28;20053;-86
2021/12/13 03:00:53;;;;;;;44.97;19.00;;;9.70;99.90;;;;;;5061288;28;20055;-86
2021/12/13 03:03:26;;;;;;;33.08;14.20;;;9.70;99.90;;;;;;5089096;28;20048;-87
2021/12/13 03:05:55;;;;;;;31.33;16.10;;;9.70;99.90;;;;;;5093566;28;20040;-87
2021/12/13 03:08:51;;;;;;;30.52;15.00;;;9.80;99.90;;;;;;5091285;28;20519;-86
2021/12/13 03:11:24;;;;;;;29.95;13.23;;;9.80;99.90;;;;;;5088865;28;20075;-85
2021/12/13 03:14:06;;;;;;;28.50;12.02;;;9.70;99.90;;;;;;5089625;28;20052;-87
2021/12/13 03:16:43;;;;;;;37.58;13.70;;;9.70;99.90;;;;;;5082610;28;20040;-86
2021/12/13 03:19:40;;;;;;;35.00;14.45;;;9.60;99.90;;;;;;5057498;28;20056;-88
2021/12/13 03:22:50;;;;;;;25.25;12.48;;;9.70;99.90;;;;;;5098883;28;20044;-86
2021/12/13 03:25:27;;;;;;;29.77;12.18;;;9.60;99.90;;;;;;5093809;28;20136;-87
2021/12/13 03:28:32;;;;;;;39.47;13.20;;;9.70;99.90;;;;;;5082146;28;20040;-85
2021/12/13 03:31:07;;;;;;;16.80;9.38;;;9.70;99.90;;;;;;5058682;28;20040;-87
2021/12/13 03:34:03;;;;;;;25.02;9.13;;;9.70;99.90;;;;;;5085026;28;20520;-88
2021/12/13 03:36:48;;;;;;;28.38;11.13;;;9.60;99.90;;;;;;5092035;28;20102;-88
2021/12/13 03:39:22;;;;;;;25.45;8.65;;;9.60;99.90;;;;;;5091935;28;20087;-77
2021/12/13 03:41:51;;;;;;;21.27;8.18;;;9.60;99.90;;;;;;5091436;28;20062;-87
2021/12/13 03:44:21;;;;;;;16.80;6.93;;;9.70;99.90;;;;;;5089988;28;20040;-85
2021/12/13 03:46:49;;;;;;;21.73;8.70;;;9.50;99.90;;;;;;5084906;28;20058;-88
2021/12/13 03:49:17;;;;;;;15.43;6.25;;;9.60;99.90;;;;;;5083061;28;20047;-77
2021/12/13 03:51:43;;;;;;;14.40;5.90;;;9.60;99.90;;;;;;5092776;28;20035;-81
2021/12/13 03:54:11;;;;;;;13.50;7.50;;;9.60;99.90;;;;;;5086718;28;20566;-87
2021/12/13 03:56:47;;;;;;;16.75;5.43;;;9.60;99.90;;;;;;5077919;28;20066;-87
2021/12/13 03:59:17;;;;;;;12.57;5.43;;;9.50;99.90;;;;;;5079554;28;20131;-76
2021/12/13 04:01:46;;;;;;;20.45;6.15;;;9.50;99.90;;;;;;5059741;28;20499;-76
2021/12/13 04:04:31;;;;;;;17.38;5.35;;;9.50;99.90;;;;;;5074510;28;20056;-87
2021/12/13 04:07:09;;;;;;;14.20;5.60;;;9.60;99.90;;;;;;5083885;28;20409;-88
2021/12/13 04:09:36;;;;;;;15.68;5.10;;;9.60;99.90;;;;;;5070184;28;20051;-87
2021/12/13 04:12:05;;;;;;;21.42;4.05;;;9.60;99.90;;;;;;5086499;28;20178;-79
2021/12/13 04:14:37;;;;;;;6.47;3.88;;;9.50;99.90;;;;;;5089065;28;20059;-87
2021/12/13 04:17:23;;;;;;;11.05;5.03;;;9.50;99.90;;;;;;5091015;28;20047;-89
2021/12/13 04:19:56;;;;;;;7.65;3.92;;;9.60;99.90;;;;;;5074990;28;20084;-87
2021/12/13 04:22:27;;;;;;;9.63;4.57;;;9.50;99.90;;;;;;5085928;28;20093;-87
2021/12/13 04:24:59;;;;;;;8.52;3.42;;;9.60;99.90;;;;;;5076008;28;20041;-88
2021/12/13 04:27:33;;;;;;;5.85;3.42;;;9.50;99.90;;;;;;5093487;28;20169;-89
2021/12/13 04:30:14;;;;;;;12.35;4.50;;;9.50;99.90;;;;;;5090198;28;20074;-88
2021/12/13 04:32:46;;;;;;;6.80;3.25;;;9.50;99.90;;;;;;5090877;28;20043;-84
2021/12/13 04:35:15;;;;;;;19.85;3.92;;;9.50;99.90;;;;;;5104375;28;20052;-86
2021/12/13 04:37:53;;;;;;;6.75;2.65;;;9.50;99.90;;;;;;5101257;28;20048;-86
2021/12/13 04:40:23;;;;;;;5.95;3.22;;;9.50;99.90;;;;;;5095813;28;20037;-85
2021/12/13 04:43:13;;;;;;;12.55;3.60;;;9.50;99.90;;;;;;5097990;28;20055;-86
2021/12/13 04:45:42;;;;;;;6.82;2.90;;;9.50;99.90;;;;;;5096963;28;20490;-90
2021/12/13 04:48:17;;;;;;;10.48;3.53;;;9.50;99.90;;;;;;5074957;28;20040;-88
2021/12/13 04:51:03;;;;;;;8.15;2.78;;;9.50;99.90;;;;;;5100682;28;20122;-76
2021/12/13 04:53:34;;;;;;;6.93;2.80;;;9.50;99.90;;;;;;5098577;28;20080;-89
2021/12/13 04:56:05;;;;;;;7.22;3.13;;;9.40;99.90;;;;;;5097229;28;20040;-89
2021/12/13 04:58:31;;;;;;;6.07;3.15;;;9.40;99.90;;;;;;5070775;28;20076;-90
2021/12/13 05:00:59;;;;;;;8.05;3.15;;;9.50;99.90;;;;;;5091272;28;20048;-87
2021/12/13 05:03:29;;;;;;;6.78;3.33;;;9.40;99.90;;;;;;5076164;28;20052;-89
2021/12/13 05:05:58;;;;;;;24.02;4.50;;;9.40;99.90;;;;;;5085529;28;20044;-86
2021/12/13 05:08:24;;;;;;;9.52;3.22;;;9.40;99.90;;;;;;5080698;28;20119;-88
2021/12/13 05:10:51;;;;;;;10.38;4.90;;;9.30;99.90;;;;;;5093055;28;20067;-89
2021/12/13 05:13:22;;;;;;;8.98;3.63;;;9.30;99.90;;;;;;5074159;28;20122;-88
2021/12/13 05:16:10;;;;;;;9.60;5.15;;;9.30;99.90;;;;;;5092321;28;20075;-88
2021/12/13 05:18:50;;;;;;;5.25;3.55;;;9.40;99.90;;;;;;5086356;28;20094;-90
2021/12/13 05:21:26;;;;;;;15.23;5.20;;;9.30;99.90;;;;;;5075746;28;20070;-86
2021/12/13 05:23:57;;;;;;;11.65;5.20;;;9.30;99.90;;;;;;5080527;28;20040;-87
2021/12/13 05:26:35;;;;;;;10.65;5.32;;;9.30;99.90;;;;;;5088757;28;20142;-85
2021/12/13 05:29:05;;;;;;;10.10;4.50;;;9.30;99.90;;;;;;5062545;28;20055;-90
2021/12/13 05:31:32;;;;;;;11.30;5.93;;;9.30;99.90;;;;;;5095459;28;20039;-89
2021/12/13 05:34:06;;;;;;;11.55;6.13;;;9.30;99.90;;;;;;5077243;28;20035;-87
2021/12/13 05:36:35;;;;;;;9.50;5.70;;;9.30;99.90;;;;;;5075612;28;20064;-89
2021/12/13 05:39:16;;;;;;;11.85;5.63;;;9.30;99.90;;;;;;5079687;28;20032;-87
2021/12/13 05:42:01;;;;;;;20.02;7.53;;;9.20;99.90;;;;;;5096013;28;20097;-89
2021/12/13 05:44:32;;;;;;;14.18;7.25;;;9.20;99.90;;;;;;5094443;28;20044;-86
2021/12/13 05:47:01;;;;;;;11.93;5.97;;;9.30;99.90;;;;;;5085210;28;20520;-88
2021/12/13 05:49:41;;;;;;;15.02;7.18;;;9.30;99.90;;;;;;5085438;28;20490;-85
2021/12/13 05:52:10;;;;;;;13.27;6.80;;;9.20;99.90;;;;;;5101349;28;20044;-87
2021/12/13 05:55:12;;;;;;;14.88;6.72;;;9.20;99.90;;;;;;5081539;28;20046;-87
2021/12/13 05:57:44;;;;;;;10.98;6.15;;;9.20;99.90;;;;;;5032476;28;20063;-88
2021/12/13 06:00:22;;;;;;;15.10;6.25;;;9.20;99.90;;;;;;5112633;28;20066;-84
2021/12/13 06:03:15;;;;;;;15.27;8.45;;;9.20;99.90;;;;;;5100048;28;20033;-86
2021/12/13 06:05:44;;;;;;;13.25;7.90;;;9.20;99.90;;;;;;5079705;28;20044;-87
2021/12/13 06:08:16;;;;;;;12.18;6.95;;;9.20;99.90;;;;;;5101781;28;20054;-86
2021/12/13 06:11:06;;;;;;;14.82;8.00;;;9.10;99.90;;;;;;5092632;28;20048;-88
2021/12/13 06:13:44;;;;;;;16.98;7.97;;;9.10;99.90;;;;;;5076338;28;20340;-87
2021/12/13 06:16:18;;;;;;;13.25;8.60;;;9.20;99.90;;;;;;5094232;28;20506;-86
2021/12/13 06:19:07;;;;;;;18.92;9.55;;;9.20;99.90;;;;;;5095049;28;20044;-86
2021/12/13 06:21:48;;;;;;;13.48;8.40;;;9.10;99.90;;;;;;5095182;28;20036;-87
2021/12/13 06:24:24;;;;;;;13.30;8.25;;;9.20;99.90;;;;;;5068281;28;20385;-85
2021/12/13 06:27:04;;;;;;;13.20;8.65;;;9.20;99.90;;;;;;5080742;28;20051;-88
2021/12/13 06:29:44;;;;;;;;;;;9.20;99.90;;;;;;5077458;28;20062;-87
2021/12/13 06:32:23;;;;;;;12.43;8.77;;;9.20;99.90;;;;;;5080860;28;19930;-86
2021/12/13 06:34:49;;;;;;;12.02;7.80;;;9.20;99.90;;;;;;5075223;28;20050;-88
2021/12/13 06:37:23;;;;;;;11.98;7.18;;;9.10;99.90;;;;;;5070500;28;20024;-81
2021/12/13 06:39:49;;;;;;;18.08;8.90;;;9.10;99.90;;;;;;5078382;28;20078;-88
2021/12/13 06:42:14;;;;;;;14.77;9.23;;;9.10;99.90;;;;;;5058373;28;20068;-76
2021/12/13 06:44:46;;;;;;;16.02;9.00;;;9.20;99.90;;;;;;5054350;28;20450;-87
2021/12/13 06:47:15;;;;;;;15.32;8.25;;;9.10;99.90;;;;;;5085716;28;20048;-83
2021/12/13 06:49:48;;;;;;;14.90;8.02;;;9.10;99.90;;;;;;5084545;28;20040;-82
2021/12/13 06:52:13;;;;;;;15.45;8.82;;;9.20;99.90;;;;;;5103438;28;20248;-74
2021/12/13 06:54:45;;;;;;;13.80;8.32;;;9.20;99.90;;;;;;5072787;28;20048;-87
2021/12/13 06:57:14;;;;;;;11.18;8.43;;;9.20;99.90;;;;;;5089280;28;20372;-83
2021/12/13 07:00:00;;;;;;;19.30;8.57;;;9.20;99.90;;;;;;5065635;28;20063;-85
2021/12/13 07:02:39;;;;;;;14.35;8.35;;;9.10;99.90;;;;;;5096028;28;20063;-86
2021/12/13 07:05:43;;;;;;;11.32;9.40;;;9.10;99.90;;;;;;5071756;28;20112;-85
2021/12/13 07:08:19;;;;;;;12.77;8.18;;;9.10;99.90;;;;;;5090243;28;20040;-86
2021/12/13 07:10:57;;;;;;;10.68;9.02;;;9.20;99.90;;;;;;5088641;28;20032;-84
2021/12/13 07:13:30;;;;;;;13.73;8.77;;;9.10;99.90;;;;;;5092460;28;20044;-85
2021/12/13 07:16:06;;;;;;;22.23;9.75;;;9.20;99.90;;;;;;5087646;28;20099;-86
2021/12/13 07:18:50;;;;;;;14.10;9.38;;;9.20;99.90;;;;;;5092753;28;20075;-86
2021/12/13 07:21:26;;;;;;;17.42;12.35;;;9.20;99.90;;;;;;5079893;28;20052;-83
2021/12/13 07:24:03;;;;;;;16.23;10.25;;;9.20;99.90;;;;;;5077096;28;20041;-85
2021/12/13 07:26:36;;;;;;;25.17;11.77;;;9.10;99.90;;;;;;5079034;28;20524;-87
2021/12/13 07:29:18;;;;;;;17.08;10.70;;;9.10;99.90;;;;;;5069252;28;20044;-84
2021/12/13 07:31:46;;;;;;;17.63;11.43;;;9.10;99.90;;;;;;5074766;28;20040;-76
2021/12/13 07:34:19;;;;;;;17.60;12.60;;;9.10;99.90;;;;;;5107819;28;20035;-85
2021/12/13 07:37:01;;;;;;;15.82;12.02;;;9.20;99.90;;;;;;5066452;28;20055;-86
2021/12/13 07:39:31;;;;;;;15.80;11.93;;;9.10;99.90;;;;;;5063582;28;20048;-83
2021/12/13 07:42:04;;;;;;;18.60;11.90;;;9.10;99.90;;;;;;5095572;28;20490;-89
2021/12/13 07:44:44;;;;;;;14.98;11.27;;;9.10;99.90;;;;;;5083720;28;20080;-86
2021/12/13 07:47:21;;;;;;;17.65;11.77;;;9.10;99.90;;;;;;5085961;28;20055;-84
2021/12/13 07:49:50;;;;;;;22.00;13.93;;;9.10;99.90;;;;;;5042786;28;20087;-85
2021/12/13 07:52:31;;;;;;;18.85;13.13;;;9.10;99.90;;;;;;5075201;28;20127;-85
2021/12/13 07:55:12;;;;;;;20.88;13.68;;;9.10;99.90;;;;;;5061317;28;20070;-84
2021/12/13 07:57:38;;;;;;;21.33;13.63;;;9.10;99.90;;;;;;5070549;28;20048;-84
2021/12/13 08:00:14;;;;;;;26.42;14.18;;;9.10;99.90;;;;;;5074051;28;20062;-82
2021/12/13 08:02:40;;;;;;;22.63;13.52;;;9.20;99.90;;;;;;5059077;28;20130;-79
2021/12/13 08:05:13;;;;;;;18.55;14.30;;;9.20;99.90;;;;;;5076077;28;20558;-88
2021/12/13 08:07:42;;;;;;;17.95;13.80;;;9.20;99.90;;;;;;5062165;28;20063;-85
2021/12/13 08:10:18;;;;;;;19.88;13.98;;;9.20;99.90;;;;;;5075465;28;20083;-86
2021/12/13 08:13:00;;;;;;;18.90;13.48;;;9.20;99.90;;;;;;5073114;28;20040;-85
2021/12/13 08:15:33;;;;;;;16.70;14.27;;;9.20;99.90;;;;;;5093200;28;20109;-86
2021/12/13 08:18:08;;;;;;;22.38;15.88;;;9.20;99.90;;;;;;5074512;28;20098;-85
2021/12/13 08:20:43;;;;;;;22.25;14.68;;;9.20;99.90;;;;;;5074794;28;20478;-85
2021/12/13 08:23:21;;;;;;;44.95;16.83;;;9.30;99.90;;;;;;5059835;28;20390;-83
2021/12/13 08:25:51;;;;;;;20.85;16.77;;;9.20;99.90;;;;;;5091450;28;20038;-84
2021/12/13 08:28:42;;;;;;;27.05;16.77;;;9.30;99.90;;;;;;5070209;28;20135;-83
2021/12/13 08:31:17;;;;;;;23.45;15.45;;;9.30;99.90;;;;;;5086016;28;20131;-83
2021/12/13 08:33:47;;;;;;;21.67;14.73;;;9.30;99.90;;;;;;5089494;28;20093;-79
2021/12/13 08:36:16;;;;;;;21.53;17.40;;;9.30;99.90;;;;;;5078429;28;20169;-73
2021/12/13 08:38:53;;;;;;;22.92;15.95;;;9.40;99.90;;;;;;5074047;28;20047;-84
2021/12/13 08:41:31;;;;;;;20.70;14.68;;;9.40;99.90;;;;;;5079883;28;20080;-84
2021/12/13 08:44:24;;;;;;;21.40;16.13;;;9.40;99.90;;;;;;5089503;28;20044;-83
2021/12/13 08:47:01;;;;;;;27.67;16.25;;;9.40;99.90;;;;;;5082112;28;20052;-85
2021/12/13 08:49:30;;;;;;;21.98;15.50;;;9.40;99.90;;;;;;5069855;28;20059;-83
2021/12/13 08:52:19;;;;;;;22.35;14.60;;;9.50;99.90;;;;;;5092534;28;20092;-81
2021/12/13 08:54:47;;;;;;;20.55;16.67;;;9.50;99.90;;;;;;5094004;28;20055;-84
2021/12/13 08:57:28;;;;;;;19.08;15.35;;;9.40;99.90;;;;;;5095840;28;20044;-82
2021/12/13 08:59:55;;;;;;;21.40;15.35;;;9.40;99.90;;;;;;5080950;28;20048;-81
2021/12/13 09:02:25;;;;;;;21.65;15.23;;;9.50;99.90;;;;;;5073755;28;20052;-84
2021/12/13 09:05:06;;;;;;;20.65;17.02;;;9.50;99.90;;;;;;5056270;28;20080;-84
2021/12/13 09:07:32;;;;;;;23.48;17.42;;;9.50;99.90;;;;;;5055464;28;20083;-83
2021/12/13 09:09:58;;;;;;;26.42;17.60;;;9.50;99.90;;;;;;5054920;28;20126;-84
2021/12/13 09:12:32;;;;;;;25.45;17.20;;;9.50;99.90;;;;;;5072704;28;20048;-82
2021/12/13 09:14:59;;;;;;;17.75;15.52;;;9.50;99.90;;;;;;5067898;28;20056;-83
2021/12/13 09:17:41;;;;;;;18.85;14.82;;;9.50;99.90;;;;;;5072301;28;20482;-84
2021/12/13 09:20:30;;;;;;;23.40;16.30;;;9.50;99.90;;;;;;5081956;28;20387;-85
2021/12/13 09:23:10;;;;;;;21.02;16.08;;;9.50;99.90;;;;;;5063127;28;20082;-83
2021/12/13 09:25:53;;;;;;;20.40;16.13;;;9.50;99.90;;;;;;5053401;28;20101;-81
2021/12/13 09:28:27;;;;;;;20.15;15.18;;;9.60;99.90;;;;;;5064302;28;20051;-82
2021/12/13 09:30:57;;;;;;;21.08;14.88;;;9.50;99.90;;;;;;5073346;28;20123;-86
2021/12/13 09:33:40;;;;;;;22.27;15.93;;;9.60;99.90;;;;;;5068976;28;20059;-86
2021/12/13 09:36:18;;;;;;;19.70;14.90;;;9.50;99.90;;;;;;5045680;28;20048;-87
2021/12/13 09:38:52;;;;;;;33.67;16.73;;;9.50;99.90;;;;;;5064795;28;20043;-83
2021/12/13 09:41:38;;;;;;;17.00;14.75;;;9.60;99.90;;;;;;5057011;28;20505;-85
2021/12/13 09:44:06;;;;;;;19.80;14.05;;;9.60;99.90;;;;;;5076252;28;20071;-86
2021/12/13 09:46:32;;;;;;;20.92;13.27;;;9.50;99.90;;;;;;5080745;28;20040;-86
2021/12/13 09:48:59;;;;;;;19.20;13.18;;;9.60;99.90;;;;;;5076589;28;20054;-85
2021/12/13 09:51:31;;;;;;;18.60;15.13;;;9.60;99.90;;;;;;5076108;28;20039;-85
2021/12/13 09:54:00;;;;;;;17.83;13.95;;;9.60;99.90;;;;;;5087391;28;20390;-86
2021/12/13 09:56:29;;;;;;;22.88;13.90;;;9.60;99.90;;;;;;5078356;28;20031;-87
2021/12/13 09:59:00;;;;;;;18.95;12.88;;;9.60;99.90;;;;;;5089163;28;20094;-83
2021/12/13 10:01:30;;;;;;;23.13;14.20;;;9.60;99.90;;;;;;5082698;28;20050;-91
2021/12/13 10:04:00;;;;;;;26.20;14.27;;;9.60;99.90;;;;;;5105562;28;20044;-86
2021/12/13 10:06:40;;;;;;;;;;;9.50;99.90;;;;;;5082218;28;20059;-85
2021/12/13 10:09:22;;;;;;;19.40;13.65;;;9.50;99.90;;;;;;5083769;28;20054;-86
2021/12/13 10:12:03;;;;;;;17.35;12.73;;;9.50;99.90;;;;;;5101458;28;20040;-85
2021/12/13 10:14:34;;;;;;;24.20;15.05;;;9.50;99.90;;;;;;5081405;28;20116;-84
2021/12/13 10:17:02;;;;;;;20.30;12.82;;;9.60;99.90;;;;;;5067879;28;20427;-85
2021/12/13 10:19:45;;;;;;;20.00;13.27;;;9.60;99.90;;;;;;5081140;28;20114;-85
2021/12/13 10:22:12;;;;;;;17.88;12.77;;;9.70;99.90;;;;;;5120180;28;20509;-84
2021/12/13 10:24:46;;;;;;;19.38;12.02;;;9.70;99.90;;;;;;5089364;28;20051;-84
2021/12/13 10:27:15;;;;;;;18.63;13.80;;;9.80;99.90;;;;;;5094010;28;20066;-83
2021/12/13 10:29:44;;;;;;;18.08;13.95;;;9.80;99.90;;;;;;5071248;28;20044;-84
2021/12/13 10:32:28;;;;;;;15.52;12.45;;;9.80;99.90;;;;;;5110228;28;20082;-85
2021/12/13 10:35:00;;;;;;;16.25;12.80;;;9.80;99.90;;;;;;5074133;28;20036;-83
2021/12/13 10:37:42;;;;;;;17.27;12.52;;;9.80;99.90;;;;;;5055812;28;20522;-85
2021/12/13 10:40:13;;;;;;;15.80;13.13;;;9.80;99.90;;;;;;5066750;28;20051;-85
2021/12/13 10:42:49;;;;;;;17.98;12.35;;;9.70;99.90;;;;;;5055416;28;20368;-84
2021/12/13 10:45:21;;;;;;;16.25;12.15;;;9.80;99.90;;;;;;5054348;28;20036;-79
2021/12/13 10:47:49;;;;;;;16.95;14.32;;;9.80;99.90;;;;;;5059667;28;20093;-82
2021/12/13 10:50:26;;;;;;;20.23;13.27;;;9.80;99.90;;;;;;5090704;28;20078;-84
2021/12/13 10:52:53;;;;;;;16.85;12.25;;;9.80;99.90;;;;;;5083013;28;20051;-86
2021/12/13 10:55:25;;;;;;;14.88;12.77;;;9.70;99.90;;;;;;5052252;28;20057;-85
2021/12/13 10:57:51;;;;;;;16.67;11.27;;;9.70;99.90;;;;;;5060226;28;20076;-86
2021/12/13 11:00:27;;;;;;;18.60;13.30;;;9.80;99.90;;;;;;5081454;28;20115;-85
2021/12/13 11:03:05;;;;;;;17.10;13.95;;;9.80;99.90;;;;;;5053551;28;20037;-84
2021/12/13 11:05:31;;;;;;;21.38;12.20;;;9.80;99.90;;;;;;5052432;28;20052;-85
2021/12/13 11:07:59;;;;;;;17.55;13.60;;;9.80;99.90;;;;;;5076976;28;20040;-86
2021/12/13 11:10:31;;;;;;;16.77;13.13;;;9.90;99.90;;;;;;5080532;28;20040;-87
2021/12/13 11:13:00;;;;;;;18.70;12.93;;;9.90;99.90;;;;;;5080269;28;20507;-84
2021/12/13 11:15:31;;;;;;;17.90;13.10;;;9.90;99.90;;;;;;5085898;28;20051;-86
2021/12/13 11:17:57;;;;;;;18.98;13.20;;;9.90;99.90;;;;;;5052801;28;20040;-84
2021/12/13 11:20:37;;;;;;;19.13;14.85;;;9.90;99.90;;;;;;5078645;28;20045;-79
2021/12/13 11:23:04;;;;;;;23.65;15.90;;;10.00;99.90;;;;;;5069266;28;20044;-80
2021/12/13 11:25:41;;;;;;;16.35;13.52;;;10.00;99.90;;;;;;5081987;28;20047;-80
2021/12/13 11:28:08;;;;;;;19.67;14.43;;;10.10;99.90;;;;;;5053685;28;20049;-83
2021/12/13 11:30:36;;;;;;;16.65;12.70;;;10.10;99.90;;;;;;5071434;28;20394;-83
2021/12/13 11:33:16;;;;;;;27.60;14.10;;;10.10;99.90;;;;;;5090039;28;20046;-76
2021/12/13 11:36:21;;;;;;;18.95;12.82;;;10.00;99.90;;;;;;5054673;28;20498;-83
2021/12/13 11:39:11;;;;;;;22.88;15.00;;;10.00;99.90;;;;;;5052211;28;20135;-85
2021/12/13 11:41:47;;;;;;;;;;;10.10;99.90;;;;;;5075863;28;20531;-84
2021/12/13 11:44:43;;;;;;;21.10;15.05;;;10.10;99.90;;;;;;5072004;28;20403;-79
2021/12/13 11:47:30;;;;;;;18.13;12.75;;;10.10;99.90;;;;;;5064762;28;20052;-84
2021/12/13 11:50:22;;;;;;;19.10;13.30;;;10.20;99.90;;;;;;5073077;28;20566;-84
2021/12/13 11:53:25;;;;;;;19.17;15.02;;;10.10;99.90;;;;;;5054485;28;20048;-84
2021/12/13 11:56:33;;;;;;;20.17;13.32;;;10.10;99.90;;;;;;5052609;28;20049;-79
2021/12/13 11:59:25;;;;;;;18.45;13.65;;;10.10;99.90;;;;;;5069603;28;20041;-83
2021/12/13 12:02:02;;;;;;;16.80;12.68;;;10.00;99.90;;;;;;5073096;28;20597;-87
2021/12/13 12:05:05;;;;;;;19.00;13.90;;;10.00;99.90;;;;;;5089905;28;20048;-84
2021/12/13 12:08:00;;;;;;;20.95;15.23;;;10.00;99.90;;;;;;5071464;28;20048;-84
2021/12/13 12:10:50;;;;;;;15.68;12.82;;;9.90;99.90;;;;;;5071993;28;20044;-85
2021/12/13 12:13:36;;;;;;;24.02;16.60;;;9.90;99.90;;;;;;5087813;28;20040;-85
2021/12/13 12:16:04;;;;;;;20.10;12.73;;;9.90;99.90;;;;;;5072614;28;20051;-79
2021/12/13 12:18:32;;;;;;;23.95;13.57;;;9.90;99.90;;;;;;5085579;28;20384;-83
2021/12/13 12:21:34;;;;;;;24.60;12.75;;;9.90;99.90;;;;;;5070377;28;20076;-83
2021/12/13 12:24:03;;;;;;;20.52;12.85;;;9.80;99.90;;;;;;5071271;28;20459;-83
2021/12/13 12:26:30;;;;;;;21.27;14.23;;;9.90;99.90;;;;;;5070673;28;20051;-83
2021/12/13 12:28:58;;;;;;;19.90;15.43;;;9.90;99.90;;;;;;5054240;28;20052;-82
2021/12/13 12:31:36;;;;;;;23.45;15.00;;;9.90;99.90;;;;;;5084774;28;20051;-84
2021/12/13 12:34:03;;;;;;;19.52;13.68;;;9.90;99.90;;;;;;5036666;28;20045;-78
2021/12/13 12:36:57;;;;;;;21.27;13.00;;;9.90;99.90;;;;;;5070677;28;20048;-84
2021/12/13 12:39:51;;;;;;;16.60;14.05;;;9.90;99.90;;;;;;5069613;28;20064;-83
2021/12/13 12:42:25;;;;;;;19.60;13.60;;;9.90;99.90;;;;;;5050698;28;20044;-83
2021/12/13 12:44:54;;;;;;;19.48;13.07;;;9.90;99.90;;;;;;5052767;28;20044;-82
2021/12/13 12:47:28;;;;;;;15.45;12.88;;;9.90;99.90;;;;;;5071582;28;20101;-83
2021/12/13 12:50:17;;;;;;;16.65;12.65;;;9.90;99.90;;;;;;5059793;28;20410;-80
2021/12/13 12:52:52;;;;;;;17.50;11.18;;;10.00;99.90;;;;;;5076066;28;20079;-75
2021/12/13 12:55:23;;;;;;;19.50;12.95;;;10.00;99.90;;;;;;5090099;28;20048;-80
2021/12/13 12:57:49;;;;;;;21.83;11.52;;;10.10;99.90;;;;;;5072197;28;20050;-82
2021/12/13 13:00:20;;;;;;;16.60;13.27;;;10.10;99.90;;;;;;5073024;28;20429;-80
2021/12/13 13:02:46;;;;;;;21.50;12.43;;;10.00;99.90;;;;;;5067825;28;20087;-81
2021/12/13 13:05:12;;;;;;;19.48;12.65;;;10.10;99.90;;;;;;5054896;28;20437;-79
2021/12/13 13:07:39;;;;;;;19.00;13.68;;;10.10;99.90;;;;;;5073107;28;20041;-83
2021/12/13 13:11:26;;;;;;;17.77;12.48;;;10.10;99.90;;;;;;5055455;28;20053;-77
2021/12/13 13:13:11;;;;;;;18.55;12.32;;;10.20;99.90;;;;;;5079109;28;20399;-80
2021/12/13 13:15:49;;;;;;;22.80;11.75;;;10.20;99.90;;;;;;5073139;28;20040;-82
2021/12/13 13:18:23;;;;;;;16.30;12.57;;;10.10;99.90;;;;;;5066306;28;20048;-80
2021/12/13 13:20:53;;;;;;;17.67;11.65;;;10.10;99.90;;;;;;5071758;28;20044;-81
2021/12/13 13:23:22;;;;;;;19.38;11.98;;;10.10;99.90;;;;;;5071486;28;20123;-83
2021/12/13 13:25:54;;;;;;;24.00;11.75;;;10.10;99.90;;;;;;5072890;28;20048;-82
2021/12/13 13:28:25;;;;;;;13.75;10.70;;;10.10;99.90;;;;;;5091276;28;20075;-83